createdAt,value
2023-05-21T00:00:32.245Z,75.64
2023-05-21T00:02:59.646Z,76.33
2023-05-21T00:05:27.031Z,76.87
2023-05-21T00:07:55.095Z,77.65
2023-05-21T00:10:22.276Z,78.05
2023-05-21T00:12:49.371Z,78.51
2023-05-21T00:15:16.499Z,79.04
2023-05-21T00:17:43.728Z,79.51
2023-05-21T00:20:11.127Z,79.90
2023-05-21T00:22:38.191Z,80.10
2023-05-21T00:25:05.579Z,80.31
2023-05-21T00:27:32.535Z,80.47
2023-05-21T00:29:59.603Z,80.61
2023-05-21T00:32:26.714Z,80.75
2023-05-21T00:34:54.373Z,80.68
2023-05-21T00:37:21.985Z,80.90
2023-05-21T00:39:49.016Z,81.06
2023-05-21T00:42:18.371Z,81.56
2023-05-21T00:44:45.701Z,81.99
2023-05-21T00:47:13.096Z,82.58
2023-05-21T00:49:40.153Z,83.38
2023-05-21T00:52:07.504Z,83.91
2023-05-21T00:54:34.516Z,84.42
2023-05-21T00:57:01.773Z,85.05
2023-05-21T00:59:28.853Z,85.28
2023-05-21T01:01:56.555Z,85.48
2023-05-21T01:04:23.973Z,85.54
2023-05-21T01:06:51.297Z,85.72
2023-05-21T01:09:18.395Z,85.96
2023-05-21T01:11:47.846Z,86.12
2023-05-21T01:14:15.520Z,86.21
2023-05-21T01:16:44.262Z,86.51
2023-05-21T01:19:12.752Z,86.54
2023-05-21T01:21:42.685Z,86.78
2023-05-21T01:24:09.702Z,86.69
2023-05-21T01:26:39.025Z,86.88
2023-05-21T01:29:06.927Z,86.92
2023-05-21T01:31:39.708Z,86.76
2023-05-21T01:34:06.858Z,87.06
2023-05-21T01:36:38.308Z,87.11
2023-05-21T01:39:09.609Z,86.85
2023-05-21T01:41:38.445Z,86.68
2023-05-21T01:44:05.467Z,86.73
2023-05-21T01:46:33.641Z,86.78
2023-05-21T01:49:00.850Z,87.07
2023-05-21T01:51:28.137Z,87.20
2023-05-21T01:53:55.156Z,87.47
2023-05-21T01:56:26.124Z,87.79
2023-05-21T01:58:53.299Z,87.96
2023-05-21T02:01:20.537Z,88.26
2023-05-21T02:03:47.607Z,88.22
2023-05-21T02:06:14.800Z,88.64
2023-05-21T02:08:41.912Z,89.09
2023-05-21T02:11:10.260Z,89.32
2023-05-21T02:13:42.237Z,89.65
2023-05-21T02:16:12.152Z,89.85
2023-05-21T02:18:39.695Z,89.99
2023-05-21T02:21:06.853Z,90.33
2023-05-21T02:23:33.951Z,90.36
2023-05-21T02:26:00.992Z,90.38
2023-05-21T02:28:29.920Z,90.61
2023-05-21T02:30:57.328Z,91.02
2023-05-21T02:33:24.379Z,91.07
2023-05-21T02:35:51.472Z,91.20
2023-05-21T02:38:19.671Z,91.06
2023-05-21T02:40:46.822Z,91.17
2023-05-21T02:43:15.399Z,91.12
2023-05-21T02:45:43.819Z,91.19
2023-05-21T02:48:11.696Z,91.26
2023-05-21T02:50:40.887Z,91.09
2023-05-21T02:53:08.083Z,90.99
2023-05-21T02:55:35.681Z,90.91
2023-05-21T02:58:03.011Z,90.93
2023-05-21T03:00:30.114Z,90.89
2023-05-21T03:02:57.372Z,90.97
2023-05-21T03:05:24.674Z,90.77
2023-05-21T03:07:51.711Z,90.61
2023-05-21T03:10:18.817Z,90.30
2023-05-21T03:12:46.057Z,90.23
2023-05-21T03:15:14.988Z,90.21
2023-05-21T03:17:45.196Z,89.84
2023-05-21T03:20:17.307Z,89.85
2023-05-21T03:22:44.773Z,89.78
2023-05-21T03:25:12.524Z,89.52
2023-05-21T03:27:39.709Z,89.45
2023-05-21T03:30:12.387Z,89.44
2023-05-21T03:32:51.760Z,89.55
2023-05-21T03:35:18.912Z,89.49
2023-05-21T03:37:46.602Z,89.50
2023-05-21T03:40:14.339Z,89.35
2023-05-21T03:42:42.120Z,89.16
2023-05-21T03:45:09.712Z,88.98
2023-05-21T03:48:02.156Z,88.94
2023-05-21T03:50:30.184Z,88.79
2023-05-21T03:52:57.572Z,88.63
2023-05-21T03:55:24.618Z,88.43
2023-05-21T03:57:51.613Z,88.41
2023-05-21T04:00:18.952Z,88.14
2023-05-21T04:02:47.610Z,87.86
2023-05-21T04:05:16.486Z,87.68
2023-05-21T04:07:46.537Z,87.25
2023-05-21T04:10:13.918Z,86.87
2023-05-21T04:12:41.147Z,86.45
2023-05-21T04:15:08.710Z,86.24
2023-05-21T04:17:35.940Z,85.86
2023-05-21T04:20:04.077Z,85.14
2023-05-21T04:22:31.211Z,84.33
2023-05-21T04:24:59.813Z,83.42
2023-05-21T04:27:30.454Z,82.97
2023-05-21T04:29:58.250Z,82.22
2023-05-21T04:32:25.392Z,81.67
2023-05-21T04:34:52.481Z,80.89
2023-05-21T04:37:19.652Z,80.22
2023-05-21T04:39:47.127Z,79.69
2023-05-21T04:42:14.463Z,79.15
2023-05-21T04:44:44.718Z,78.98
2023-05-21T04:47:15.087Z,78.36
2023-05-21T04:49:42.448Z,77.51
2023-05-21T04:52:09.708Z,77.03
2023-05-21T04:54:39.329Z,76.59
2023-05-21T04:57:07.683Z,75.99
2023-05-21T04:59:35.562Z,75.67
2023-05-21T05:02:02.987Z,74.89
2023-05-21T05:04:30.070Z,74.81
2023-05-21T05:06:57.224Z,74.83
2023-05-21T05:09:26.168Z,74.20
2023-05-21T05:11:53.715Z,72.80
2023-05-21T05:14:20.847Z,72.68
2023-05-21T05:16:51.001Z,72.47
2023-05-21T05:19:18.387Z,72.67
2023-05-21T05:21:45.846Z,72.70
2023-05-21T05:24:13.005Z,71.83
2023-05-21T05:26:40.062Z,71.94
2023-05-21T05:29:07.198Z,71.88
2023-05-21T05:31:34.567Z,70.64
2023-05-21T05:34:02.461Z,70.36
2023-05-21T05:36:29.820Z,70.33
2023-05-21T05:38:57.022Z,70.51
2023-05-21T05:41:25.453Z,70.10
2023-05-21T05:43:52.992Z,69.47
2023-05-21T05:46:21.436Z,69.81
2023-05-21T05:48:48.647Z,69.76
2023-05-21T05:51:17.526Z,68.25
2023-05-21T05:53:45.810Z,68.44
2023-05-21T05:56:12.994Z,68.99
2023-05-21T05:58:41.052Z,68.37
2023-05-21T06:01:13.882Z,67.20
2023-05-21T06:03:41.305Z,65.34
2023-05-21T06:06:14.618Z,65.39
2023-05-21T06:08:43.652Z,64.93
2023-05-21T06:11:13.410Z,64.55
2023-05-21T06:13:41.805Z,64.37
2023-05-21T06:16:10.181Z,65.07
2023-05-21T06:18:38.309Z,64.48
2023-05-21T06:21:05.437Z,63.90
2023-05-21T06:23:32.871Z,63.32
2023-05-21T06:26:00.981Z,63.69
2023-05-21T06:28:28.163Z,63.09
2023-05-21T06:30:55.667Z,63.98
2023-05-21T06:33:24.118Z,63.89
2023-05-21T06:35:52.703Z,63.98
2023-05-21T06:38:20.546Z,63.07
2023-05-21T06:40:48.061Z,62.18
2023-05-21T06:43:21.127Z,62.62
2023-05-21T06:46:08.537Z,62.52
2023-05-21T06:48:38.978Z,62.46
2023-05-21T06:51:06.202Z,63.02
2023-05-21T06:53:33.458Z,62.74
2023-05-21T06:56:01.244Z,62.62
2023-05-21T06:58:36.372Z,62.25
2023-05-21T07:01:04.789Z,62.51
2023-05-21T07:03:32.087Z,63.25
2023-05-21T07:05:59.485Z,62.63
2023-05-21T07:08:26.622Z,62.03
2023-05-21T07:10:53.872Z,61.70
2023-05-21T07:13:21.638Z,60.71
2023-05-21T07:15:48.755Z,59.94
2023-05-21T07:18:16.973Z,59.99
2023-05-21T07:20:44.740Z,60.23
2023-05-21T07:23:13.997Z,59.99
2023-05-21T07:25:41.268Z,57.75
2023-05-21T07:28:09.353Z,56.80
2023-05-21T07:30:37.113Z,56.57
2023-05-21T07:33:06.613Z,56.37
2023-05-21T07:35:33.818Z,56.25
2023-05-21T07:38:01.022Z,56.85
2023-05-21T07:40:28.218Z,56.68
2023-05-21T07:42:55.511Z,56.63
2023-05-21T07:45:23.036Z,55.92
2023-05-21T07:47:50.621Z,54.76
2023-05-21T07:50:18.041Z,54.35
2023-05-21T07:52:45.242Z,54.77
2023-05-21T07:55:12.417Z,55.45
2023-05-21T07:57:40.292Z,55.62
2023-05-21T08:00:16.299Z,55.91
2023-05-21T08:02:47.745Z,55.23
2023-05-21T08:05:16.668Z,53.80
2023-05-21T08:07:46.141Z,53.67
2023-05-21T08:10:19.253Z,55.94
2023-05-21T08:12:49.893Z,56.61
2023-05-21T08:15:18.720Z,56.56
2023-05-21T08:17:48.284Z,57.09
2023-05-21T08:20:16.494Z,57.90
2023-05-21T08:22:45.349Z,59.72
2023-05-21T08:25:14.053Z,60.90
2023-05-21T08:27:42.413Z,61.14
2023-05-21T08:30:11.836Z,61.95
2023-05-21T08:32:39.899Z,61.76
2023-05-21T08:35:08.566Z,60.78
2023-05-21T08:37:56.573Z,59.84
2023-05-21T08:40:42.860Z,57.93
2023-05-21T08:43:14.027Z,56.89
2023-05-21T08:45:45.748Z,56.58
2023-05-21T08:48:13.410Z,57.27
2023-05-21T08:50:41.085Z,57.08
2023-05-21T08:53:19.859Z,56.65
2023-05-21T08:55:58.850Z,56.16
2023-05-21T08:58:35.811Z,56.53
2023-05-21T09:01:02.941Z,56.85
2023-05-21T09:03:31.977Z,56.64
2023-05-21T09:05:59.342Z,56.48
2023-05-21T09:08:33.049Z,56.00
2023-05-21T09:11:22.966Z,56.31
2023-05-21T09:13:54.479Z,55.81
2023-05-21T09:16:29.359Z,55.71
2023-05-21T09:18:56.700Z,55.15
2023-05-21T09:21:31.712Z,54.25
2023-05-21T09:24:09.902Z,53.91
2023-05-21T09:26:38.607Z,54.10
2023-05-21T09:29:06.259Z,53.84
2023-05-21T09:31:35.391Z,54.00
2023-05-21T09:34:02.819Z,53.36
2023-05-21T09:36:32.155Z,52.14
2023-05-21T09:39:00.387Z,50.75
2023-05-21T09:41:36.034Z,50.64
2023-05-21T09:44:04.242Z,49.37
2023-05-21T09:46:41.471Z,50.28
2023-05-21T09:49:26.592Z,50.06
2023-05-21T09:51:58.361Z,49.38
2023-05-21T09:54:35.132Z,48.77
2023-05-21T09:57:05.410Z,47.75
2023-05-21T09:59:36.739Z,46.27
2023-05-21T10:02:03.977Z,45.41
2023-05-21T10:04:31.812Z,44.73
2023-05-21T10:06:59.039Z,44.13
2023-05-21T10:09:26.172Z,43.34
2023-05-21T10:11:53.358Z,42.75
2023-05-21T10:14:20.709Z,41.88
2023-05-21T10:16:48.089Z,41.76
2023-05-21T10:19:15.894Z,40.72
2023-05-21T10:21:43.465Z,40.47
2023-05-21T10:24:10.695Z,40.03
2023-05-21T10:26:38.581Z,40.70
2023-05-21T10:29:05.680Z,42.14
2023-05-21T10:31:33.483Z,42.52
2023-05-21T10:34:00.838Z,42.44
2023-05-21T10:36:30.022Z,41.25
2023-05-21T10:38:57.352Z,40.32
2023-05-21T10:41:26.261Z,40.49
2023-05-21T10:44:05.388Z,40.75
2023-05-21T10:46:38.458Z,40.77
2023-05-21T10:49:25.662Z,41.60
2023-05-21T10:52:28.309Z,42.70
2023-05-21T10:55:38.283Z,42.73
2023-05-21T10:58:29.281Z,42.29
2023-05-21T11:00:57.141Z,42.14
2023-05-21T11:03:24.333Z,41.73
2023-05-21T11:05:52.354Z,41.38
2023-05-21T11:08:36.117Z,41.40
2023-05-21T11:11:03.947Z,41.27
2023-05-21T11:13:49.630Z,41.07
2023-05-21T11:16:17.173Z,40.21
2023-05-21T11:18:47.364Z,39.94
2023-05-21T11:21:16.120Z,39.82
2023-05-21T11:23:52.696Z,40.18
2023-05-21T11:26:30.554Z,39.89
2023-05-21T11:29:08.195Z,39.60
2023-05-21T11:31:39.471Z,39.86
2023-05-21T11:34:15.181Z,39.27
2023-05-21T11:36:45.992Z,39.46
2023-05-21T11:39:22.132Z,39.31
2023-05-21T11:42:01.609Z,38.77
2023-05-21T11:44:42.661Z,38.49
2023-05-21T11:47:11.448Z,38.20
2023-05-21T11:49:38.759Z,38.03
2023-05-21T11:52:06.815Z,38.50
2023-05-21T11:54:37.559Z,38.14
2023-05-21T11:57:08.179Z,37.80
2023-05-21T11:59:35.305Z,37.32
2023-05-21T12:02:03.239Z,37.46
2023-05-21T12:04:36.594Z,36.84
2023-05-21T12:07:05.285Z,36.72
2023-05-21T12:09:32.336Z,36.45
2023-05-21T12:12:00.997Z,36.53
2023-05-21T12:14:28.093Z,36.40
2023-05-21T12:16:55.237Z,36.33
2023-05-21T12:19:22.628Z,36.36
2023-05-21T12:21:49.723Z,36.33
2023-05-21T12:24:16.801Z,36.34
2023-05-21T12:26:46.108Z,35.83
2023-05-21T12:29:13.157Z,35.61
2023-05-21T12:31:49.786Z,35.05
2023-05-21T12:34:19.047Z,34.92
2023-05-21T12:36:48.400Z,34.80
2023-05-21T12:39:16.587Z,34.78
2023-05-21T12:41:44.146Z,34.52
2023-05-21T12:44:14.543Z,33.79
2023-05-21T12:46:41.824Z,33.93
2023-05-21T12:49:09.086Z,34.10
2023-05-21T12:51:40.199Z,34.11
2023-05-21T12:54:14.253Z,33.79
2023-05-21T12:56:45.596Z,33.81
2023-05-21T12:59:16.032Z,34.07
2023-05-21T13:01:43.153Z,34.38
2023-05-21T13:04:10.351Z,34.73
2023-05-21T13:06:44.038Z,35.04
2023-05-21T13:09:11.156Z,34.65
2023-05-21T13:11:38.274Z,35.06
2023-05-21T13:14:05.413Z,34.86
2023-05-21T13:16:32.850Z,33.48
2023-05-21T13:19:00.937Z,33.03
2023-05-21T13:21:28.885Z,31.86
2023-05-21T13:23:56.114Z,33.00
2023-05-21T13:26:23.404Z,34.42
2023-05-21T13:28:50.686Z,34.76
2023-05-21T13:31:18.322Z,34.76
2023-05-21T13:33:45.587Z,34.77
2023-05-21T13:36:12.783Z,35.04
2023-05-21T13:38:39.867Z,35.12
2023-05-21T13:41:07.383Z,34.67
2023-05-21T13:43:34.637Z,34.28
2023-05-21T13:46:02.253Z,34.10
2023-05-21T13:48:29.598Z,34.38
2023-05-21T13:50:56.786Z,34.75
2023-05-21T13:53:24.023Z,35.58
2023-05-21T13:55:51.322Z,36.06
2023-05-21T13:58:18.483Z,36.66
2023-05-21T14:00:45.797Z,37.04
2023-05-21T14:03:13.017Z,37.31
2023-05-21T14:05:40.217Z,37.70
2023-05-21T14:08:07.330Z,37.87
2023-05-21T14:10:34.672Z,37.83
2023-05-21T14:13:15.400Z,38.07
2023-05-21T14:15:43.372Z,37.78
2023-05-21T14:18:12.484Z,36.78
2023-05-21T14:20:39.780Z,35.07
2023-05-21T14:23:07.178Z,34.54
2023-05-21T14:25:34.727Z,33.69
2023-05-21T14:28:01.929Z,32.84
2023-05-21T14:30:29.162Z,31.37
2023-05-21T14:32:58.008Z,30.53
2023-05-21T14:35:25.312Z,30.79
2023-05-21T14:37:53.311Z,30.72
2023-05-21T14:40:20.768Z,30.46
2023-05-21T14:42:47.807Z,30.84
2023-05-21T14:45:19.212Z,30.75
2023-05-21T14:47:47.929Z,30.55
2023-05-21T14:50:15.943Z,30.58
2023-05-21T14:52:43.383Z,30.81
2023-05-21T14:55:10.907Z,31.85
2023-05-21T14:57:38.276Z,33.32
2023-05-21T15:00:06.092Z,34.84
2023-05-21T15:02:33.300Z,36.22
2023-05-21T15:05:00.679Z,37.62
2023-05-21T15:07:27.737Z,38.84
2023-05-21T15:09:54.792Z,40.09
2023-05-21T15:12:21.878Z,40.80
2023-05-21T15:14:48.995Z,41.49
2023-05-21T15:17:16.110Z,42.25
2023-05-21T15:19:43.277Z,42.59
2023-05-21T15:22:10.401Z,43.88
2023-05-21T15:24:37.786Z,44.23
2023-05-21T15:27:06.015Z,44.42
2023-05-21T15:29:33.327Z,45.39
2023-05-21T15:32:01.367Z,46.03
2023-05-21T15:34:28.605Z,46.93
2023-05-21T15:36:58.114Z,47.90
2023-05-21T15:39:25.338Z,47.85
2023-05-21T15:41:54.145Z,47.84
2023-05-21T15:44:23.856Z,48.14
2023-05-21T15:46:51.825Z,48.47
2023-05-21T15:49:19.174Z,48.88
2023-05-21T15:51:49.481Z,49.52
2023-05-21T15:54:16.627Z,49.77
2023-05-21T15:56:45.460Z,49.84
2023-05-21T15:59:14.070Z,50.75
2023-05-21T16:01:41.204Z,52.83
2023-05-21T16:04:08.414Z,54.06
2023-05-21T16:06:35.577Z,54.79
2023-05-21T16:09:02.723Z,54.84
2023-05-21T16:11:29.846Z,55.52
2023-05-21T16:13:57.646Z,55.27
2023-05-21T16:16:24.949Z,55.64
2023-05-21T16:18:52.210Z,55.71
2023-05-21T16:21:19.365Z,56.02
2023-05-21T16:23:46.594Z,56.18
2023-05-21T16:26:13.836Z,56.87
2023-05-21T16:28:41.425Z,57.21
2023-05-21T16:31:09.837Z,57.53
2023-05-21T16:33:36.959Z,58.02
2023-05-21T16:36:04.947Z,58.55
2023-05-21T16:38:35.545Z,58.62
2023-05-21T16:41:02.720Z,58.55
2023-05-21T16:43:30.266Z,58.35
2023-05-21T16:45:57.545Z,58.66
2023-05-21T16:48:26.127Z,58.67
2023-05-21T16:50:53.309Z,59.09
2023-05-21T16:53:20.740Z,58.98
2023-05-21T16:55:48.071Z,58.78
2023-05-21T16:58:15.285Z,59.05
2023-05-21T17:00:42.647Z,59.16
2023-05-21T17:03:09.875Z,59.21
2023-05-21T17:05:37.346Z,59.38
2023-05-21T17:08:04.916Z,59.19
2023-05-21T17:10:32.655Z,59.42
2023-05-21T17:13:01.854Z,59.62
2023-05-21T17:15:33.874Z,60.13
2023-05-21T17:18:01.176Z,60.79
2023-05-21T17:20:29.913Z,61.46
2023-05-21T17:22:57.171Z,62.27
2023-05-21T17:25:25.345Z,62.77
2023-05-21T17:27:53.380Z,63.15
2023-05-21T17:30:22.559Z,63.48
2023-05-21T17:32:50.967Z,63.62
2023-05-21T17:35:18.283Z,63.94
2023-05-21T17:37:45.626Z,63.85
2023-05-21T17:40:13.022Z,63.43
2023-05-21T17:42:40.134Z,63.13
2023-05-21T17:45:07.598Z,62.38
2023-05-21T17:47:34.777Z,62.09
2023-05-21T17:50:01.920Z,61.91
2023-05-21T17:52:29.393Z,61.38
2023-05-21T17:54:56.702Z,59.95
2023-05-21T17:57:23.805Z,58.97
2023-05-21T17:59:51.048Z,58.27
2023-05-21T18:02:18.230Z,57.55
2023-05-21T18:04:45.586Z,57.12
2023-05-21T18:07:12.673Z,56.73
2023-05-21T18:09:39.729Z,56.86
2023-05-21T18:12:07.436Z,56.93
2023-05-21T18:14:34.637Z,57.34
2023-05-21T18:17:01.838Z,57.79
2023-05-21T18:19:30.227Z,57.87
2023-05-21T18:21:57.548Z,58.05
2023-05-21T18:24:24.711Z,58.26
2023-05-21T18:26:51.897Z,58.45
2023-05-21T18:29:18.946Z,58.13
2023-05-21T18:31:46.347Z,58.26
2023-05-21T18:34:14.378Z,58.25
2023-05-21T18:36:41.631Z,58.40
2023-05-21T18:39:09.338Z,58.52
2023-05-21T18:41:37.494Z,58.72
2023-05-21T18:44:06.298Z,58.91
2023-05-21T18:46:33.483Z,59.26
2023-05-21T18:49:01.150Z,59.97
2023-05-21T18:51:28.387Z,60.87
2023-05-21T18:53:56.169Z,62.67
2023-05-21T18:56:23.269Z,64.31
2023-05-21T18:58:50.471Z,66.69
2023-05-21T19:01:18.451Z,67.66
2023-05-21T19:03:45.929Z,69.17
2023-05-21T19:06:13.145Z,70.99
2023-05-21T19:08:41.411Z,73.03
2023-05-21T19:11:08.722Z,74.68
2023-05-21T19:13:35.900Z,76.09
2023-05-21T19:16:03.197Z,77.33
2023-05-21T19:18:31.803Z,77.95
2023-05-21T19:21:00.373Z,78.48
2023-05-21T19:23:28.571Z,77.56
2023-05-21T19:25:56.662Z,76.30
2023-05-21T19:28:23.906Z,75.21
2023-05-21T19:30:51.167Z,74.71
2023-05-21T19:33:18.357Z,74.79
2023-05-21T19:35:45.605Z,74.84
2023-05-21T19:38:12.904Z,74.45
2023-05-21T19:40:40.878Z,73.57
2023-05-21T19:43:07.935Z,73.13
2023-05-21T19:45:35.328Z,73.09
2023-05-21T19:48:02.810Z,73.07
2023-05-21T19:50:30.182Z,73.00
2023-05-21T19:52:57.414Z,72.76
2023-05-21T19:55:25.128Z,72.80
2023-05-21T19:57:52.241Z,74.17
2023-05-21T20:00:19.743Z,74.44
2023-05-21T20:02:46.955Z,75.55
2023-05-21T20:05:14.749Z,82.46
2023-05-21T20:07:42.563Z,86.80
2023-05-21T20:10:09.794Z,90.40
2023-05-21T20:12:37.245Z,92.82
2023-05-21T20:15:08.167Z,94.54
2023-05-21T20:17:36.266Z,94.95
2023-05-21T20:20:06.275Z,95.15
2023-05-21T20:22:33.527Z,95.31
2023-05-21T20:25:01.927Z,95.40
2023-05-21T20:27:28.949Z,95.75
2023-05-21T20:29:56.174Z,95.74
2023-05-21T20:32:23.307Z,95.73
2023-05-21T20:35:02.138Z,96.25
2023-05-21T20:37:32.565Z,97.23
2023-05-21T20:40:00.063Z,97.96
2023-05-21T20:42:28.766Z,97.98
2023-05-21T20:44:58.988Z,97.71
2023-05-21T20:47:30.256Z,96.87
2023-05-21T20:49:59.038Z,96.07
2023-05-21T20:52:26.268Z,95.16
2023-05-21T20:54:54.941Z,94.10
2023-05-21T20:57:26.301Z,92.71
2023-05-21T20:59:53.748Z,91.59
2023-05-21T21:02:21.309Z,90.79
2023-05-21T21:04:51.198Z,90.02
2023-05-21T21:07:18.432Z,89.40
2023-05-21T21:09:46.693Z,88.92
2023-05-21T21:12:25.220Z,88.45
2023-05-21T21:14:53.647Z,87.77
2023-05-21T21:17:20.937Z,87.24
2023-05-21T21:19:48.023Z,86.38
2023-05-21T21:22:15.733Z,86.31
2023-05-21T21:24:42.790Z,85.94
2023-05-21T21:27:10.173Z,85.84
2023-05-21T21:29:37.213Z,85.37
2023-05-21T21:32:04.734Z,84.87
2023-05-21T21:34:31.759Z,84.51
2023-05-21T21:36:58.791Z,84.32
2023-05-21T21:39:26.993Z,83.98
2023-05-21T21:41:54.154Z,83.82
2023-05-21T21:44:21.830Z,83.57
2023-05-21T21:46:49.189Z,83.44
2023-05-21T21:49:19.208Z,83.16
2023-05-21T21:51:46.379Z,83.03
2023-05-21T21:54:13.419Z,82.83
2023-05-21T21:56:40.779Z,83.08
2023-05-21T21:59:08.009Z,83.27
2023-05-21T22:01:36.260Z,83.68
2023-05-21T22:04:03.508Z,83.83
2023-05-21T22:06:31.655Z,83.97
2023-05-21T22:08:58.897Z,83.98
2023-05-21T22:11:27.089Z,84.07
2023-05-21T22:13:54.353Z,84.22
2023-05-21T22:16:21.408Z,84.47
2023-05-21T22:18:50.308Z,84.82
2023-05-21T22:21:18.577Z,85.14
2023-05-21T22:23:45.690Z,85.54
2023-05-21T22:26:12.701Z,85.82
2023-05-21T22:28:39.818Z,85.89
2023-05-21T22:31:07.846Z,86.06
2023-05-21T22:33:34.937Z,86.21
2023-05-21T22:36:02.094Z,86.33
2023-05-21T22:38:29.188Z,86.55
2023-05-21T22:40:56.358Z,86.65
2023-05-21T22:43:23.878Z,87.11
2023-05-21T22:45:50.899Z,87.46
2023-05-21T22:48:18.354Z,87.76
2023-05-21T22:50:46.308Z,88.26
2023-05-21T22:53:13.947Z,88.87
2023-05-21T22:55:41.283Z,89.94
2023-05-21T22:58:08.735Z,91.47
2023-05-21T23:00:36.207Z,92.46
2023-05-21T23:03:03.889Z,93.23
2023-05-21T23:05:31.433Z,94.17
2023-05-21T23:07:58.462Z,94.73
2023-05-21T23:10:25.689Z,95.13
2023-05-21T23:12:52.873Z,95.41
2023-05-21T23:15:19.955Z,95.65
2023-05-21T23:17:47.245Z,95.52
2023-05-21T23:20:15.618Z,95.46
2023-05-21T23:22:42.643Z,95.26
2023-05-21T23:25:10.060Z,95.05
2023-05-21T23:27:37.198Z,94.83
2023-05-21T23:30:04.565Z,94.37
2023-05-21T23:32:31.671Z,94.02
2023-05-21T23:34:58.796Z,93.77
2023-05-21T23:37:25.970Z,93.76
2023-05-21T23:39:52.985Z,94.28
2023-05-21T23:42:20.258Z,95.29
2023-05-21T23:44:47.392Z,96.12
2023-05-21T23:47:14.424Z,96.70
2023-05-21T23:49:41.456Z,97.25
2023-05-21T23:52:08.733Z,97.07
2023-05-21T23:54:35.906Z,96.38
2023-05-21T23:57:03.122Z,94.54
2023-05-21T23:59:30.249Z,93.28
